sensor_id;sensor_type;location;lat;lon;timestamp;pressure;altitude;pressure_sealevel;temperature;humidity
21869;BME280;11099;41.564;23.296;2023-09-19T00:02:19;97790.25;;;20.76;74.82
21869;BME280;11099;41.564;23.296;2023-09-19T00:04:44;97811.94;;;20.80;75.38
21869;BME280;11099;41.564;23.296;2023-09-19T00:07:10;97766.66;;;20.47;75.39
21869;BME280;11099;41.564;23.296;2023-09-19T00:09:35;97803.69;;;20.69;74.51
21869;BME280;11099;41.564;23.296;2023-09-19T00:12:07;97899.06;;;21.16;76.31
21869;BME280;11099;41.564;23.296;2023-09-19T00:14:34;97799.50;;;20.49;76.76
21869;BME280;11099;41.564;23.296;2023-09-19T00:17:04;97836.59;;;20.71;76.29
21869;BME280;11099;41.564;23.296;2023-09-19T00:19:37;97862.66;;;21.13;75.81
21869;BME280;11099;41.564;23.296;2023-09-19T00:22:03;97833.94;;;21.05;75.81
21869;BME280;11099;41.564;23.296;2023-09-19T00:24:29;97860.22;;;21.31;75.62
21869;BME280;11099;41.564;23.296;2023-09-19T00:26:56;97867.28;;;20.83;77.41
21869;BME280;11099;41.564;23.296;2023-09-19T00:29:25;97876.94;;;20.84;78.68
21869;BME280;11099;41.564;23.296;2023-09-19T00:31:55;97867.47;;;20.97;78.27
21869;BME280;11099;41.564;23.296;2023-09-19T00:34:24;97885.81;;;20.35;82.35
21869;BME280;11099;41.564;23.296;2023-09-19T00:36:51;97812.47;;;19.71;83.41
21869;BME280;11099;41.564;23.296;2023-09-19T00:39:19;97851.56;;;19.77;84.59
21869;BME280;11099;41.564;23.296;2023-09-19T00:41:45;97855.03;;;19.78;86.19
21869;BME280;11099;41.564;23.296;2023-09-19T00:44:11;97807.88;;;19.33;86.42
21869;BME280;11099;41.564;23.296;2023-09-19T00:46:37;97829.72;;;19.63;84.54
21869;BME280;11099;41.564;23.296;2023-09-19T00:49:03;97774.19;;;19.65;82.73
21869;BME280;11099;41.564;23.296;2023-09-19T00:51:29;97777.63;;;19.62;83.41
21869;BME280;11099;41.564;23.296;2023-09-19T00:53:55;97879.19;;;20.32;83.61
21869;BME280;11099;41.564;23.296;2023-09-19T00:56:21;97857.31;;;20.18;83.80
21869;BME280;11099;41.564;23.296;2023-09-19T00:58:48;97751.13;;;19.71;82.26
21869;BME280;11099;41.564;23.296;2023-09-19T01:01:14;97849.06;;;20.11;82.78
21869;BME280;11099;41.564;23.296;2023-09-19T01:03:41;97877.88;;;20.45;83.66
21869;BME280;11099;41.564;23.296;2023-09-19T01:06:07;97823.19;;;19.87;84.73
21869;BME280;11099;41.564;23.296;2023-09-19T01:08:34;97839.78;;;19.85;85.25
21869;BME280;11099;41.564;23.296;2023-09-19T01:11:15;97885.97;;;19.80;88.16
21869;BME280;11099;41.564;23.296;2023-09-19T01:13:58;97893.28;;;19.41;93.33
21869;BME280;11099;41.564;23.296;2023-09-19T01:16:53;97856.41;;;19.29;93.52
21869;BME280;11099;41.564;23.296;2023-09-19T01:25:02;97894.78;;;19.96;92.46
21869;BME280;11099;41.564;23.296;2023-09-19T01:30:14;97895.34;;;19.47;97.62
21869;BME280;11099;41.564;23.296;2023-09-19T01:32:40;97865.91;;;19.23;97.38
21869;BME280;11099;41.564;23.296;2023-09-19T01:35:07;97836.84;;;19.16;95.58
21869;BME280;11099;41.564;23.296;2023-09-19T01:37:37;97851.66;;;18.87;97.94
21869;BME280;11099;41.564;23.296;2023-09-19T01:40:08;97795.69;;;18.49;98.64
21869;BME280;11099;41.564;23.296;2023-09-19T01:45:41;97879.97;;;19.13;98.42
21869;BME280;11099;41.564;23.296;2023-09-19T01:51:09;97872.09;;;18.88;99.69
21869;BME280;11099;41.564;23.296;2023-09-19T01:53:43;97840.97;;;18.75;100.00
21869;BME280;11099;41.564;23.296;2023-09-19T01:56:18;97859.66;;;18.84;100.00
21869;BME280;11099;41.564;23.296;2023-09-19T01:58:49;97852.63;;;19.14;99.49
21869;BME280;11099;41.564;23.296;2023-09-19T02:01:19;97855.78;;;19.01;100.00
21869;BME280;11099;41.564;23.296;2023-09-19T02:03:50;97758.44;;;17.88;100.00
21869;BME280;11099;41.564;23.296;2023-09-19T02:06:17;97847.41;;;18.71;100.00
21869;BME280;11099;41.564;23.296;2023-09-19T02:08:44;97818.78;;;18.66;100.00
21869;BME280;11099;41.564;23.296;2023-09-19T02:11:13;97737.03;;;18.27;100.00
21869;BME280;11099;41.564;23.296;2023-09-19T02:13:39;97779.66;;;18.72;100.00
21869;BME280;11099;41.564;23.296;2023-09-19T02:16:06;97827.25;;;19.38;98.91
21869;BME280;11099;41.564;23.296;2023-09-19T02:18:32;97853.41;;;19.54;99.58
21869;BME280;11099;41.564;23.296;2023-09-19T02:21:01;97765.81;;;18.74;100.00
21869;BME280;11099;41.564;23.296;2023-09-19T02:23:27;97847.78;;;19.04;100.00
21869;BME280;11099;41.564;23.296;2023-09-19T02:26:02;97780.31;;;18.85;100.00
21869;BME280;11099;41.564;23.296;2023-09-19T02:28:28;97779.25;;;18.89;100.00
21869;BME280;11099;41.564;23.296;2023-09-19T02:30:58;97846.81;;;19.12;100.00
21869;BME280;11099;41.564;23.296;2023-09-19T02:33:24;97808.34;;;19.00;100.00
21869;BME280;11099;41.564;23.296;2023-09-19T02:35:49;97841.75;;;19.49;100.00
21869;BME280;11099;41.564;23.296;2023-09-19T02:38:15;97832.53;;;19.70;99.53
21869;BME280;11099;41.564;23.296;2023-09-19T02:40:46;97701.94;;;18.78;97.88
21869;BME280;11099;41.564;23.296;2023-09-19T02:43:11;97843.53;;;19.22;100.00
21869;BME280;11099;41.564;23.296;2023-09-19T02:45:37;97780.78;;;18.71;100.00
21869;BME280;11099;41.564;23.296;2023-09-19T02:48:03;97808.56;;;19.49;98.54
21869;BME280;11099;41.564;23.296;2023-09-19T02:50:29;97797.22;;;19.20;97.60
21869;BME280;11099;41.564;23.296;2023-09-19T02:52:55;97798.72;;;19.18;99.29
21869;BME280;11099;41.564;23.296;2023-09-19T02:55:21;97812.00;;;19.65;96.96
21869;BME280;11099;41.564;23.296;2023-09-19T02:57:48;97821.44;;;19.75;95.98
21869;BME280;11099;41.564;23.296;2023-09-19T03:00:15;97828.31;;;19.34;98.40
21869;BME280;11099;41.564;23.296;2023-09-19T03:02:41;97817.19;;;19.35;97.84
21869;BME280;11099;41.564;23.296;2023-09-19T03:05:07;97744.72;;;18.44;100.00
21869;BME280;11099;41.564;23.296;2023-09-19T03:07:33;97773.47;;;18.56;100.00
21869;BME280;11099;41.564;23.296;2023-09-19T03:09:59;97850.66;;;19.31;100.00
21869;BME280;11099;41.564;23.296;2023-09-19T03:12:26;97805.16;;;18.75;100.00
21869;BME280;11099;41.564;23.296;2023-09-19T03:14:52;97747.69;;;18.39;100.00
21869;BME280;11099;41.564;23.296;2023-09-19T03:17:17;97817.63;;;18.67;100.00
21869;BME280;11099;41.564;23.296;2023-09-19T03:19:45;97747.63;;;18.35;100.00
21869;BME280;11099;41.564;23.296;2023-09-19T03:22:12;97849.44;;;18.74;100.00
21869;BME280;11099;41.564;23.296;2023-09-19T03:24:37;97861.94;;;18.82;100.00
21869;BME280;11099;41.564;23.296;2023-09-19T03:27:03;97849.78;;;19.07;100.00
21869;BME280;11099;41.564;23.296;2023-09-19T03:29:29;97783.75;;;18.50;100.00
21869;BME280;11099;41.564;23.296;2023-09-19T03:31:55;97749.81;;;18.30;100.00
21869;BME280;11099;41.564;23.296;2023-09-19T03:34:20;97791.66;;;18.59;100.00
21869;BME280;11099;41.564;23.296;2023-09-19T03:36:46;97824.03;;;18.94;100.00
21869;BME280;11099;41.564;23.296;2023-09-19T03:39:12;97757.41;;;18.43;100.00
21869;BME280;11099;41.564;23.296;2023-09-19T03:41:41;97871.13;;;18.97;100.00
21869;BME280;11099;41.564;23.296;2023-09-19T03:44:07;97776.00;;;18.13;100.00
21869;BME280;11099;41.564;23.296;2023-09-19T03:46:32;97795.34;;;18.35;100.00
21869;BME280;11099;41.564;23.296;2023-09-19T03:48:59;97821.59;;;18.69;100.00
21869;BME280;11099;41.564;23.296;2023-09-19T03:51:25;97777.53;;;18.46;100.00
21869;BME280;11099;41.564;23.296;2023-09-19T03:53:50;97763.09;;;18.38;100.00
21869;BME280;11099;41.564;23.296;2023-09-19T03:56:16;97798.09;;;18.70;100.00
21869;BME280;11099;41.564;23.296;2023-09-19T03:58:42;97770.13;;;18.78;100.00
21869;BME280;11099;41.564;23.296;2023-09-19T04:01:07;97818.63;;;19.29;100.00
21869;BME280;11099;41.564;23.296;2023-09-19T04:03:36;97813.13;;;19.06;100.00
21869;BME280;11099;41.564;23.296;2023-09-19T04:06:15;97769.44;;;19.01;99.34
21869;BME280;11099;41.564;23.296;2023-09-19T04:08:41;97805.78;;;18.87;100.00
21869;BME280;11099;41.564;23.296;2023-09-19T04:11:08;97861.94;;;19.36;100.00
21869;BME280;11099;41.564;23.296;2023-09-19T04:13:33;97766.03;;;18.49;100.00
21869;BME280;11099;41.564;23.296;2023-09-19T04:15:59;97805.16;;;18.94;100.00
21869;BME280;11099;41.564;23.296;2023-09-19T04:18:25;97777.66;;;18.53;100.00
21869;BME280;11099;41.564;23.296;2023-09-19T04:20:51;97810.44;;;18.71;100.00
21869;BME280;11099;41.564;23.296;2023-09-19T04:23:17;97766.94;;;17.90;100.00
21869;BME280;11099;41.564;23.296;2023-09-19T04:25:45;97857.59;;;18.30;100.00
21869;BME280;11099;41.564;23.296;2023-09-19T04:28:11;97769.75;;;17.65;100.00
21869;BME280;11099;41.564;23.296;2023-09-19T04:30:39;97881.66;;;18.23;100.00
21869;BME280;11099;41.564;23.296;2023-09-19T04:33:08;97790.81;;;18.07;100.00
21869;BME280;11099;41.564;23.296;2023-09-19T04:35:33;97860.63;;;18.28;100.00
21869;BME280;11099;41.564;23.296;2023-09-19T04:38:00;97847.66;;;18.18;100.00
21869;BME280;11099;41.564;23.296;2023-09-19T04:40:26;97903.44;;;18.30;100.00
21869;BME280;11099;41.564;23.296;2023-09-19T04:42:55;97899.13;;;18.29;100.00
21869;BME280;11099;41.564;23.296;2023-09-19T04:45:22;97821.59;;;18.06;100.00
21869;BME280;11099;41.564;23.296;2023-09-19T04:47:48;97809.63;;;18.04;100.00
21869;BME280;11099;41.564;23.296;2023-09-19T04:50:14;97814.63;;;17.89;100.00
21869;BME280;11099;41.564;23.296;2023-09-19T04:52:43;97790.47;;;17.77;100.00
21869;BME280;11099;41.564;23.296;2023-09-19T04:55:16;97853.59;;;18.24;100.00
21869;BME280;11099;41.564;23.296;2023-09-19T04:57:50;97909.06;;;18.88;100.00
21869;BME280;11099;41.564;23.296;2023-09-19T05:00:17;97853.59;;;18.39;100.00
21869;BME280;11099;41.564;23.296;2023-09-19T05:02:44;97811.84;;;18.49;100.00
21869;BME280;11099;41.564;23.296;2023-09-19T05:05:10;97839.66;;;19.39;100.00
21869;BME280;11099;41.564;23.296;2023-09-19T05:07:38;97875.69;;;20.32;99.15
21869;BME280;11099;41.564;23.296;2023-09-19T05:10:05;97916.78;;;20.87;93.76
21869;BME280;11099;41.564;23.296;2023-09-19T05:12:34;97892.78;;;20.59;91.76
21869;BME280;11099;41.564;23.296;2023-09-19T05:15:04;97817.41;;;19.88;92.91
21869;BME280;11099;41.564;23.296;2023-09-19T05:17:30;97826.31;;;20.58;89.18
21869;BME280;11099;41.564;23.296;2023-09-19T05:19:57;97928.75;;;22.32;82.10
21869;BME280;11099;41.564;23.296;2023-09-19T05:22:23;97912.31;;;22.62;78.26
21869;BME280;11099;41.564;23.296;2023-09-19T05:24:50;97807.63;;;21.66;78.12
21869;BME280;11099;41.564;23.296;2023-09-19T05:27:16;97866.56;;;22.13;77.73
21869;BME280;11099;41.564;23.296;2023-09-19T05:29:43;97912.22;;;22.48;77.46
21869;BME280;11099;41.564;23.296;2023-09-19T05:32:10;97790.25;;;21.74;77.64
21869;BME280;11099;41.564;23.296;2023-09-19T05:34:36;97830.28;;;22.28;75.99
21869;BME280;11099;41.564;23.296;2023-09-19T05:37:02;97828.59;;;22.61;75.53
21869;BME280;11099;41.564;23.296;2023-09-19T05:39:28;97718.69;;;22.26;72.47
21869;BME280;11099;41.564;23.296;2023-09-19T05:41:54;97858.56;;;22.79;73.87
21869;BME280;11099;41.564;23.296;2023-09-19T05:44:20;97746.78;;;21.26;77.95
21869;BME280;11099;41.564;23.296;2023-09-19T05:46:45;97795.00;;;21.47;80.05
21869;BME280;11099;41.564;23.296;2023-09-19T05:49:13;97813.66;;;21.22;81.24
21869;BME280;11099;41.564;23.296;2023-09-19T05:51:39;97828.19;;;20.80;84.61
21869;BME280;11099;41.564;23.296;2023-09-19T05:54:04;97855.84;;;21.23;83.58
21869;BME280;11099;41.564;23.296;2023-09-19T05:56:30;97897.75;;;21.63;83.29
21869;BME280;11099;41.564;23.296;2023-09-19T05:58:56;97900.88;;;21.98;80.14
21869;BME280;11099;41.564;23.296;2023-09-19T06:01:22;97859.88;;;22.07;78.42
21869;BME280;11099;41.564;23.296;2023-09-19T06:03:47;97886.13;;;22.81;75.24
21869;BME280;11099;41.564;23.296;2023-09-19T06:06:14;97761.44;;;21.96;75.34
21869;BME280;11099;41.564;23.296;2023-09-19T06:08:39;97817.50;;;22.29;74.81
21869;BME280;11099;41.564;23.296;2023-09-19T06:11:05;97792.69;;;22.82;70.92
21869;BME280;11099;41.564;23.296;2023-09-19T06:13:34;97896.59;;;23.45;70.80
21869;BME280;11099;41.564;23.296;2023-09-19T06:16:00;97840.19;;;23.13;71.01
21869;BME280;11099;41.564;23.296;2023-09-19T06:18:33;97854.25;;;23.36;69.55
21869;BME280;11099;41.564;23.296;2023-09-19T06:20:59;97889.47;;;23.15;71.93
21869;BME280;11099;41.564;23.296;2023-09-19T06:23:25;97844.09;;;23.19;69.64
21869;BME280;11099;41.564;23.296;2023-09-19T06:25:54;97847.91;;;24.19;65.82
21869;BME280;11099;41.564;23.296;2023-09-19T06:28:19;97903.91;;;24.63;64.46
21869;BME280;11099;41.564;23.296;2023-09-19T06:30:49;97802.03;;;23.97;64.44
21869;BME280;11099;41.564;23.296;2023-09-19T06:33:15;97842.69;;;23.57;67.50
21869;BME280;11099;41.564;23.296;2023-09-19T06:35:42;97794.22;;;23.63;66.81
21869;BME280;11099;41.564;23.296;2023-09-19T06:38:12;97848.25;;;24.11;65.29
21869;BME280;11099;41.564;23.296;2023-09-19T06:40:38;97872.69;;;23.89;65.97
21869;BME280;11099;41.564;23.296;2023-09-19T06:43:05;97816.66;;;23.49;65.93
21869;BME280;11099;41.564;23.296;2023-09-19T06:45:30;97839.34;;;24.78;62.07
21869;BME280;11099;41.564;23.296;2023-09-19T06:47:57;97801.22;;;24.75;59.79
21869;BME280;11099;41.564;23.296;2023-09-19T06:50:23;97758.88;;;23.70;62.62
21869;BME280;11099;41.564;23.296;2023-09-19T06:52:50;97880.47;;;25.34;61.04
21869;BME280;11099;41.564;23.296;2023-09-19T06:55:20;97885.81;;;25.62;59.39
21869;BME280;11099;41.564;23.296;2023-09-19T06:57:46;97855.19;;;25.33;58.80
21869;BME280;11099;41.564;23.296;2023-09-19T07:00:13;97850.25;;;24.60;60.28
21869;BME280;11099;41.564;23.296;2023-09-19T07:02:54;97851.41;;;24.63;61.42
21869;BME280;11099;41.564;23.296;2023-09-19T07:05:20;97789.22;;;24.51;60.20
21869;BME280;11099;41.564;23.296;2023-09-19T07:07:47;97839.28;;;25.00;59.32
21869;BME280;11099;41.564;23.296;2023-09-19T07:10:12;97858.00;;;24.65;60.62
21869;BME280;11099;41.564;23.296;2023-09-19T07:12:39;97823.84;;;24.47;60.92
21869;BME280;11099;41.564;23.296;2023-09-19T07:15:06;97805.53;;;24.43;61.55
21869;BME280;11099;41.564;23.296;2023-09-19T07:17:32;97861.13;;;24.85;60.62
21869;BME280;11099;41.564;23.296;2023-09-19T07:19:58;97836.25;;;24.44;61.79
21869;BME280;11099;41.564;23.296;2023-09-19T07:22:26;97787.28;;;24.12;61.64
21869;BME280;11099;41.564;23.296;2023-09-19T07:24:51;97778.72;;;24.13;61.64
21869;BME280;11099;41.564;23.296;2023-09-19T07:27:17;97823.03;;;24.42;61.42
21869;BME280;11099;41.564;23.296;2023-09-19T07:29:42;97784.94;;;24.00;61.90
21869;BME280;11099;41.564;23.296;2023-09-19T07:32:08;97886.75;;;24.98;61.56
21869;BME280;11099;41.564;23.296;2023-09-19T07:34:35;97787.66;;;24.39;60.94
21869;BME280;11099;41.564;23.296;2023-09-19T07:37:01;97886.75;;;25.23;59.23
21869;BME280;11099;41.564;23.296;2023-09-19T07:39:27;97785.72;;;24.47;59.83
21869;BME280;11099;41.564;23.296;2023-09-19T07:41:53;97880.75;;;25.64;58.59
21869;BME280;11099;41.564;23.296;2023-09-19T07:44:19;97768.72;;;25.37;57.06
21869;BME280;11099;41.564;23.296;2023-09-19T07:46:45;97866.19;;;25.99;56.81
21869;BME280;11099;41.564;23.296;2023-09-19T07:49:11;97759.59;;;24.81;58.55
21869;BME280;11099;41.564;23.296;2023-09-19T07:51:36;97840.44;;;26.00;57.26
21869;BME280;11099;41.564;23.296;2023-09-19T07:54:02;97815.28;;;25.71;56.56
21869;BME280;11099;41.564;23.296;2023-09-19T07:56:27;97771.19;;;25.14;58.49
21869;BME280;11099;41.564;23.296;2023-09-19T07:58:53;97845.06;;;26.59;55.28
21869;BME280;11099;41.564;23.296;2023-09-19T08:01:19;97862.81;;;27.23;52.78
21869;BME280;11099;41.564;23.296;2023-09-19T08:03:44;97780.00;;;26.06;56.36
21869;BME280;11099;41.564;23.296;2023-09-19T08:06:10;97851.94;;;26.78;55.02
21869;BME280;11099;41.564;23.296;2023-09-19T08:08:37;97837.66;;;26.08;56.94
21869;BME280;11099;41.564;23.296;2023-09-19T08:11:04;97837.56;;;25.56;57.44
21869;BME280;11099;41.564;23.296;2023-09-19T08:13:37;97814.00;;;25.03;59.10
21869;BME280;11099;41.564;23.296;2023-09-19T08:16:05;97821.78;;;25.01;60.08
21869;BME280;11099;41.564;23.296;2023-09-19T08:18:31;97801.16;;;25.10;59.75
21869;BME280;11099;41.564;23.296;2023-09-19T08:20:57;97827.63;;;24.99;60.27
21869;BME280;11099;41.564;23.296;2023-09-19T08:23:24;97827.63;;;25.10;58.77
21869;BME280;11099;41.564;23.296;2023-09-19T08:25:49;97740.13;;;24.90;59.17
21869;BME280;11099;41.564;23.296;2023-09-19T08:28:15;97743.97;;;25.00;59.11
21869;BME280;11099;41.564;23.296;2023-09-19T08:30:45;97863.81;;;24.96;62.48
21869;BME280;11099;41.564;23.296;2023-09-19T08:33:11;97742.19;;;24.47;62.04
21869;BME280;11099;41.564;23.296;2023-09-19T08:35:36;97864.94;;;25.20;62.12
21869;BME280;11099;41.564;23.296;2023-09-19T08:38:05;97832.69;;;25.11;61.67
21869;BME280;11099;41.564;23.296;2023-09-19T08:40:32;97835.06;;;24.56;64.02
21869;BME280;11099;41.564;23.296;2023-09-19T08:42:59;97826.13;;;24.55;63.50
21869;BME280;11099;41.564;23.296;2023-09-19T08:45:26;97760.44;;;24.10;64.41
21869;BME280;11099;41.564;23.296;2023-09-19T08:50:30;97816.03;;;24.56;64.03
21869;BME280;11099;41.564;23.296;2023-09-19T08:53:01;97793.41;;;24.94;62.40
21869;BME280;11099;41.564;23.296;2023-09-19T08:55:27;97843.38;;;25.58;61.66
21869;BME280;11099;41.564;23.296;2023-09-19T08:58:10;97785.34;;;25.61;60.91
21869;BME280;11099;41.564;23.296;2023-09-19T09:00:36;97801.94;;;25.00;61.81
21869;BME280;11099;41.564;23.296;2023-09-19T09:03:03;97759.66;;;24.67;62.11
21869;BME280;11099;41.564;23.296;2023-09-19T09:05:32;97783.78;;;25.60;60.55
21869;BME280;11099;41.564;23.296;2023-09-19T09:08:00;97828.34;;;26.05;59.52
21869;BME280;11099;41.564;23.296;2023-09-19T09:10:27;97725.63;;;25.18;58.81
21869;BME280;11099;41.564;23.296;2023-09-19T09:12:54;97746.00;;;25.62;59.32
21869;BME280;11099;41.564;23.296;2023-09-19T09:15:23;97831.97;;;26.40;58.00
21869;BME280;11099;41.564;23.296;2023-09-19T09:17:51;97747.69;;;25.38;59.25
21869;BME280;11099;41.564;23.296;2023-09-19T09:20:21;97813.88;;;26.08;59.89
21869;BME280;11099;41.564;23.296;2023-09-19T09:22:56;97794.81;;;26.53;57.33
21869;BME280;11099;41.564;23.296;2023-09-19T09:25:53;97824.63;;;26.78;57.89
21869;BME280;11099;41.564;23.296;2023-09-19T09:28:21;97781.81;;;26.68;57.43
21869;BME280;11099;41.564;23.296;2023-09-19T09:30:53;97823.59;;;26.65;57.01
21869;BME280;11099;41.564;23.296;2023-09-19T09:33:33;97814.06;;;26.35;57.81
21869;BME280;11099;41.564;23.296;2023-09-19T09:36:01;97796.22;;;26.23;57.34
21869;BME280;11099;41.564;23.296;2023-09-19T09:38:43;97813.34;;;26.27;59.37
21869;BME280;11099;41.564;23.296;2023-09-19T09:41:10;97779.00;;;26.75;56.53
21869;BME280;11099;41.564;23.296;2023-09-19T09:43:41;97824.78;;;27.36;54.75
21869;BME280;11099;41.564;23.296;2023-09-19T09:46:17;97822.16;;;27.25;54.54
21869;BME280;11099;41.564;23.296;2023-09-19T09:48:47;97792.59;;;26.82;54.61
21869;BME280;11099;41.564;23.296;2023-09-19T09:51:36;97799.06;;;26.95;54.50
21869;BME280;11099;41.564;23.296;2023-09-19T09:54:17;97817.09;;;26.89;54.83
21869;BME280;11099;41.564;23.296;2023-09-19T09:56:57;97773.53;;;26.75;55.77
21869;BME280;11099;41.564;23.296;2023-09-19T09:59:52;97800.16;;;27.66;54.12
21869;BME280;11099;41.564;23.296;2023-09-19T10:02:29;97786.59;;;28.13;52.51
21869;BME280;11099;41.564;23.296;2023-09-19T10:04:58;97791.44;;;28.52;52.23
21869;BME280;11099;41.564;23.296;2023-09-19T10:07:32;97734.81;;;28.22;50.98
21869;BME280;11099;41.564;23.296;2023-09-19T10:10:02;97777.09;;;27.94;52.64
21869;BME280;11099;41.564;23.296;2023-09-19T10:12:47;97780.16;;;28.00;53.35
21869;BME280;11099;41.564;23.296;2023-09-19T10:15:18;97723.00;;;27.51;53.75
21869;BME280;11099;41.564;23.296;2023-09-19T10:17:47;97732.59;;;27.63;52.67
21869;BME280;11099;41.564;23.296;2023-09-19T10:20:17;97757.91;;;27.98;51.97
21869;BME280;11099;41.564;23.296;2023-09-19T10:23:01;97719.13;;;28.03;52.25
21869;BME280;11099;41.564;23.296;2023-09-19T10:25:29;97752.19;;;28.59;50.39
21869;BME280;11099;41.564;23.296;2023-09-19T10:28:00;97740.94;;;28.30;50.77
21869;BME280;11099;41.564;23.296;2023-09-19T10:30:31;97685.94;;;27.50;52.36
21869;BME280;11099;41.564;23.296;2023-09-19T10:33:03;97645.84;;;27.13;52.15
21869;BME280;11099;41.564;23.296;2023-09-19T10:35:29;97648.84;;;26.92;53.90
21869;BME280;11099;41.564;23.296;2023-09-19T10:37:57;97692.13;;;26.63;55.17
21869;BME280;11099;41.564;23.296;2023-09-19T10:40:27;97731.97;;;26.94;55.52
21869;BME280;11099;41.564;23.296;2023-09-19T10:43:04;97705.03;;;27.27;54.33
21869;BME280;11099;41.564;23.296;2023-09-19T10:45:35;97729.25;;;27.79;52.75
21869;BME280;11099;41.564;23.296;2023-09-19T10:48:04;97661.16;;;27.34;54.01
21869;BME280;11099;41.564;23.296;2023-09-19T10:50:46;97677.25;;;26.30;55.40
21869;BME280;11099;41.564;23.296;2023-09-19T10:53:16;97729.38;;;26.80;56.27
21869;BME280;11099;41.564;23.296;2023-09-19T10:55:49;97653.09;;;26.66;55.36
21869;BME280;11099;41.564;23.296;2023-09-19T10:58:29;97621.03;;;26.39;55.72
21869;BME280;11099;41.564;23.296;2023-09-19T11:00:58;97696.94;;;27.20;54.47
21869;BME280;11099;41.564;23.296;2023-09-19T11:03:43;97661.22;;;27.03;53.86
21869;BME280;11099;41.564;23.296;2023-09-19T11:06:16;97706.34;;;27.15;54.54
21869;BME280;11099;41.564;23.296;2023-09-19T11:08:59;97699.03;;;27.36;52.69
21869;BME280;11099;41.564;23.296;2023-09-19T11:11:44;97696.69;;;27.88;52.27
21869;BME280;11099;41.564;23.296;2023-09-19T11:20:20;97694.91;;;28.25;50.04
21869;BME280;11099;41.564;23.296;2023-09-19T11:25:45;97678.50;;;28.45;46.98
21869;BME280;11099;41.564;23.296;2023-09-19T11:30:51;97632.22;;;28.30;46.76
21869;BME280;11099;41.564;23.296;2023-09-19T11:33:24;97669.75;;;28.89;46.83
21869;BME280;11099;41.564;23.296;2023-09-19T11:46:21;97634.97;;;29.06;45.58
21869;BME280;11099;41.564;23.296;2023-09-19T11:48:50;97641.53;;;29.12;46.04
21869;BME280;11099;41.564;23.296;2023-09-19T11:51:21;97595.34;;;28.75;46.93
21869;BME280;11099;41.564;23.296;2023-09-19T11:53:58;97569.81;;;29.30;45.92
21869;BME280;11099;41.564;23.296;2023-09-19T11:56:28;97625.34;;;29.34;46.16
21869;BME280;11099;41.564;23.296;2023-09-19T11:58:55;97606.22;;;29.31;45.19
21869;BME280;11099;41.564;23.296;2023-09-19T12:01:27;97598.69;;;29.84;44.28
21869;BME280;11099;41.564;23.296;2023-09-19T12:03:56;97625.50;;;29.27;44.20
21869;BME280;11099;41.564;23.296;2023-09-19T12:06:24;97595.59;;;29.49;44.48
21869;BME280;11099;41.564;23.296;2023-09-19T12:08:50;97576.75;;;29.02;44.60
21869;BME280;11099;41.564;23.296;2023-09-19T12:11:17;97614.03;;;29.32;45.41
21869;BME280;11099;41.564;23.296;2023-09-19T12:13:47;97576.13;;;29.44;43.29
21869;BME280;11099;41.564;23.296;2023-09-19T12:16:20;97611.03;;;28.54;46.29
21869;BME280;11099;41.564;23.296;2023-09-19T12:18:48;97608.94;;;28.98;45.86
21869;BME280;11099;41.564;23.296;2023-09-19T12:21:31;97599.88;;;29.01;45.11
21869;BME280;11099;41.564;23.296;2023-09-19T12:26:40;97541.66;;;28.77;45.36
21869;BME280;11099;41.564;23.296;2023-09-19T12:29:14;97572.63;;;29.27;45.47
21869;BME280;11099;41.564;23.296;2023-09-19T12:31:54;97584.91;;;29.55;44.48
21869;BME280;11099;41.564;23.296;2023-09-19T12:34:31;97572.81;;;29.36;44.40
21869;BME280;11099;41.564;23.296;2023-09-19T12:37:10;97579.16;;;29.33;45.23
21869;BME280;11099;41.564;23.296;2023-09-19T12:39:46;97560.38;;;29.31;44.40
21869;BME280;11099;41.564;23.296;2023-09-19T12:42:17;97547.09;;;29.46;44.29
21869;BME280;11099;41.564;23.296;2023-09-19T12:44:55;97581.03;;;29.69;44.08
21869;BME280;11099;41.564;23.296;2023-09-19T12:47:23;97532.81;;;29.84;43.49
21869;BME280;11099;41.564;23.296;2023-09-19T12:50:12;97563.34;;;29.86;43.03
21869;BME280;11099;41.564;23.296;2023-09-19T12:52:40;97560.88;;;29.75;42.05
21869;BME280;11099;41.564;23.296;2023-09-19T12:55:06;97539.69;;;29.76;42.62
21869;BME280;11099;41.564;23.296;2023-09-19T12:57:34;97547.31;;;29.84;41.25
21869;BME280;11099;41.564;23.296;2023-09-19T13:00:03;97469.41;;;29.65;41.23
21869;BME280;11099;41.564;23.296;2023-09-19T13:02:31;97515.81;;;29.27;42.55
21869;BME280;11099;41.564;23.296;2023-09-19T13:04:58;97523.25;;;29.88;41.90
21869;BME280;11099;41.564;23.296;2023-09-19T13:07:42;97524.56;;;29.38;41.76
21869;BME280;11099;41.564;23.296;2023-09-19T13:10:09;97547.97;;;29.88;41.48
21869;BME280;11099;41.564;23.296;2023-09-19T13:12:37;97497.97;;;29.68;41.65
21869;BME280;11099;41.564;23.296;2023-09-19T13:15:14;97456.13;;;29.64;40.28
21869;BME280;11099;41.564;23.296;2023-09-19T13:17:48;97503.88;;;29.96;41.82
21869;BME280;11099;41.564;23.296;2023-09-19T13:20:27;97534.88;;;30.51;39.74
21869;BME280;11099;41.564;23.296;2023-09-19T13:22:53;97493.09;;;30.43;39.04
21869;BME280;11099;41.564;23.296;2023-09-19T13:25:23;97511.88;;;30.32;39.13
21869;BME280;11099;41.564;23.296;2023-09-19T13:27:51;97530.97;;;29.48;41.05
21869;BME280;11099;41.564;23.296;2023-09-19T13:30:18;97525.13;;;29.79;40.87
21869;BME280;11099;41.564;23.296;2023-09-19T13:32:44;97486.59;;;29.82;40.72
21869;BME280;11099;41.564;23.296;2023-09-19T13:35:13;97524.06;;;30.18;39.24
21869;BME280;11099;41.564;23.296;2023-09-19T13:37:40;97526.44;;;29.87;39.75
21869;BME280;11099;41.564;23.296;2023-09-19T13:40:14;97495.69;;;29.79;39.74